Time;durP1;ratioP1;P1;durP2;ratioP2;P2;SDS_P1;SDS_P2;PMS_P1;PMS_P2;Temp;Humidity;BMP_temperature;BMP_pressure;BME280_temperature;BME280_humidity;BME280_pressure;Samples;Min_cycle;Max_cycle;Signal;HPM_P1;HPM_P2
2023/11/09 00:00:30;;;;;;;4.00;3.80;;;9.60;99.90;;;;;;5054300;28;20642;-75
2023/11/09 00:02:56;;;;;;;4.37;4.00;;;9.60;99.90;;;;;;5054352;28;20206;-75
2023/11/09 00:05:22;;;;;;;4.50;4.10;;;9.60;99.90;;;;;;5054492;28;20206;-74
2023/11/09 00:07:47;;;;;;;4.00;3.80;;;9.60;99.90;;;;;;5054130;28;20222;-74
2023/11/09 00:10:13;;;;;;;4.17;3.87;;;9.60;99.90;;;;;;5073551;28;20170;-74
2023/11/09 00:12:43;;;;;;;3.87;3.60;;;9.70;99.90;;;;;;5074022;28;20210;-75
2023/11/09 00:15:10;;;;;;;4.07;3.77;;;9.70;99.90;;;;;;5060837;28;20209;-74
2023/11/09 00:17:36;;;;;;;3.87;3.67;;;9.70;99.90;;;;;;5053678;28;20210;-74
2023/11/09 00:20:02;;;;;;;4.10;3.90;;;9.70;99.90;;;;;;5054304;28;20179;-74
2023/11/09 00:22:27;;;;;;;3.80;3.60;;;9.70;99.90;;;;;;5060125;28;20259;-76
2023/11/09 00:24:53;;;;;;;8.33;3.90;;;9.70;99.90;;;;;;5074090;28;20190;-74
2023/11/09 00:27:22;;;;;;;4.63;4.23;;;9.70;99.90;;;;;;5073957;28;20182;-75
2023/11/09 00:29:47;;;;;;;4.00;3.80;;;9.70;99.90;;;;;;5074024;28;20166;-74
2023/11/09 00:32:17;;;;;;;4.40;4.00;;;9.70;99.90;;;;;;5074775;28;20185;-74
2023/11/09 00:34:44;;;;;;;4.57;4.17;;;9.70;99.90;;;;;;5075074;28;20572;-75
2023/11/09 00:37:10;;;;;;;4.33;4.13;;;9.70;99.90;;;;;;5074732;28;20186;-75
2023/11/09 00:39:37;;;;;;;4.77;4.47;;;9.70;99.90;;;;;;5075139;28;20299;-75
2023/11/09 00:42:05;;;;;;;4.47;4.17;;;9.70;99.90;;;;;;5071448;28;20198;-75
2023/11/09 00:44:31;;;;;;;5.83;4.20;;;9.70;99.90;;;;;;5053614;28;20186;-75
2023/11/09 00:46:56;;;;;;;4.37;4.07;;;9.70;99.90;;;;;;5053517;28;20163;-75
2023/11/09 00:49:22;;;;;;;4.30;4.00;;;9.70;99.90;;;;;;5053576;28;20198;-74
2023/11/09 00:51:48;;;;;;;4.20;3.90;;;9.70;99.90;;;;;;5053446;28;20171;-74
2023/11/09 00:54:13;;;;;;;4.10;3.90;;;9.70;99.90;;;;;;5053313;28;20203;-75
2023/11/09 00:56:39;;;;;;;4.20;3.90;;;9.70;99.90;;;;;;5053415;28;20167;-75
2023/11/09 00:59:06;;;;;;;4.50;4.10;;;9.70;99.90;;;;;;5073345;28;20189;-75
2023/11/09 01:01:31;;;;;;;4.90;4.40;;;9.70;99.90;;;;;;5071919;28;20231;-74
2023/11/09 01:03:57;;;;;;;4.13;3.77;;;9.70;99.90;;;;;;5073100;28;20674;-75
2023/11/09 01:06:22;;;;;;;4.43;4.20;;;9.70;99.90;;;;;;5072750;28;20166;-75
2023/11/09 01:08:48;;;;;;;4.70;4.30;;;9.70;99.90;;;;;;5072937;28;20220;-75
2023/11/09 01:11:21;;;;;;;4.20;3.90;;;9.70;99.90;;;;;;5072727;28;20163;-74
2023/11/09 01:13:47;;;;;;;3.80;3.60;;;9.70;99.90;;;;;;5073062;28;20181;-75
2023/11/09 01:16:13;;;;;;;4.10;3.80;;;9.70;99.90;;;;;;5054405;28;20178;-74
2023/11/09 01:18:39;;;;;;;3.70;3.50;;;9.70;99.90;;;;;;5052659;28;20175;-74
2023/11/09 01:21:05;;;;;;;4.40;4.10;;;9.70;99.90;;;;;;5052808;28;20191;-74
2023/11/09 01:23:30;;;;;;;4.30;4.10;;;9.80;99.90;;;;;;5052567;28;20199;-74
2023/11/09 01:25:56;;;;;;;4.30;4.00;;;9.80;99.90;;;;;;5052488;28;20240;-75
2023/11/09 01:28:22;;;;;;;4.20;3.90;;;9.80;99.90;;;;;;5052347;28;20177;-74
2023/11/09 01:30:47;;;;;;;4.20;3.90;;;9.80;99.90;;;;;;5052415;28;20175;-74
2023/11/09 01:33:13;;;;;;;3.90;3.70;;;9.80;99.90;;;;;;5054745;28;20196;-74
2023/11/09 01:35:39;;;;;;;4.20;3.80;;;9.80;99.90;;;;;;5072264;28;20263;-74
2023/11/09 01:38:05;;;;;;;3.90;3.70;;;9.80;99.90;;;;;;5072296;28;20173;-74
2023/11/09 01:40:33;;;;;;;4.17;3.87;;;9.80;99.90;;;;;;5072647;28;20177;-74
2023/11/09 01:42:59;;;;;;;3.77;3.53;;;9.80;99.90;;;;;;5059928;28;20205;-73
2023/11/09 01:45:25;;;;;;;4.27;3.97;;;9.80;99.90;;;;;;5052304;28;20187;-74
2023/11/09 01:47:53;;;;;;;3.97;3.77;;;9.80;99.90;;;;;;5051840;28;20547;-75
2023/11/09 01:50:18;;;;;;;4.10;3.80;;;9.80;99.90;;;;;;5052148;28;20179;-73
2023/11/09 01:52:44;;;;;;;4.50;3.70;;;9.80;99.90;;;;;;5052058;28;20682;-74
2023/11/09 01:55:12;;;;;;;4.20;3.90;;;9.80;99.90;;;;;;5052021;28;20191;-74
2023/11/09 01:57:40;;;;;;;5.10;4.60;;;9.80;99.90;;;;;;5051885;28;20185;-74
2023/11/09 02:00:08;;;;;;;4.40;4.17;;;9.80;99.90;;;;;;5052126;28;20611;-74
2023/11/09 02:02:35;;;;;;;4.40;4.10;;;9.80;99.90;;;;;;5051563;28;20203;-74
2023/11/09 02:05:01;;;;;;;4.10;3.90;;;9.80;99.90;;;;;;5051963;28;20187;-74
2023/11/09 02:07:28;;;;;;;4.37;4.07;;;9.80;99.90;;;;;;5051967;28;20178;-74
2023/11/09 02:09:55;;;;;;;4.23;3.93;;;9.90;99.90;;;;;;5054339;28;20175;-74
2023/11/09 02:12:21;;;;;;;4.10;3.90;;;9.80;99.90;;;;;;5071296;28;20174;-75
2023/11/09 02:14:47;;;;;;;4.23;3.93;;;9.80;99.90;;;;;;5071584;28;20201;-75
2023/11/09 02:17:13;;;;;;;4.10;3.90;;;9.90;99.90;;;;;;5070340;28;20174;-74
2023/11/09 02:19:39;;;;;;;5.83;5.53;;;9.80;99.90;;;;;;5051535;28;20171;-73
2023/11/09 02:22:05;;;;;;;4.30;4.00;;;9.80;99.90;;;;;;5051597;28;20262;-74
2023/11/09 02:24:31;;;;;;;4.10;3.80;;;9.80;99.90;;;;;;5051531;28;20206;-73
2023/11/09 02:26:57;;;;;;;3.93;3.63;;;9.80;99.90;;;;;;5051313;28;20174;-73
2023/11/09 02:29:24;;;;;;;7.03;4.00;;;9.80;99.90;;;;;;5051606;28;20167;-73
2023/11/09 02:31:51;;;;;;;4.40;3.60;;;9.80;99.90;;;;;;5051417;28;20205;-74
2023/11/09 02:34:23;;;;;;;3.60;3.50;;;9.80;99.90;;;;;;5070820;28;20582;-74
2023/11/09 02:36:50;;;;;;;3.87;3.67;;;9.80;99.90;;;;;;5071157;28;20224;-75
2023/11/09 02:39:16;;;;;;;3.90;3.60;;;9.80;99.90;;;;;;5057224;28;20529;-74
2023/11/09 02:41:42;;;;;;;3.60;3.40;;;9.80;99.90;;;;;;5054998;28;20193;-74
2023/11/09 02:44:08;;;;;;;3.97;3.67;;;9.80;99.90;;;;;;5071386;28;20255;-74
2023/11/09 02:46:34;;;;;;;4.07;3.70;;;9.80;99.90;;;;;;5070757;28;20212;-74
2023/11/09 02:49:00;;;;;;;3.97;3.67;;;9.80;99.90;;;;;;5071255;28;20174;-74
2023/11/09 02:51:26;;;;;;;3.77;3.60;;;9.80;99.90;;;;;;5071387;28;20261;-74
2023/11/09 02:53:53;;;;;;;3.77;3.57;;;9.80;99.90;;;;;;5070886;28;20171;-75
2023/11/09 02:56:20;;;;;;;3.93;3.73;;;9.80;99.90;;;;;;5070570;28;20566;-74
2023/11/09 02:58:46;;;;;;;3.60;3.50;;;9.80;99.90;;;;;;5070976;28;20632;-74
2023/11/09 03:01:11;;;;;;;4.10;3.90;;;9.80;99.90;;;;;;5071292;28;20209;-74
2023/11/09 03:03:37;;;;;;;4.07;3.87;;;9.80;99.90;;;;;;5070873;28;20178;-74
2023/11/09 03:06:03;;;;;;;3.70;3.50;;;9.80;99.90;;;;;;5067292;28;20635;-75
2023/11/09 03:08:30;;;;;;;3.90;3.70;;;9.90;99.90;;;;;;5050768;28;20374;-73
2023/11/09 03:10:56;;;;;;;3.83;3.63;;;9.80;99.90;;;;;;5052404;28;20738;-75
2023/11/09 03:13:21;;;;;;;3.60;3.50;;;9.80;99.90;;;;;;5033289;28;20179;-73
2023/11/09 03:15:48;;;;;;;4.37;4.07;;;9.80;99.90;;;;;;5051465;28;20690;-74
2023/11/09 03:18:13;;;;;;;4.10;3.80;;;9.90;99.90;;;;;;5051917;28;20250;-74
2023/11/09 03:20:41;;;;;;;4.07;3.87;;;9.90;99.90;;;;;;5051307;28;20751;-75
2023/11/09 03:23:08;;;;;;;3.50;3.40;;;9.80;99.90;;;;;;5051586;28;20202;-75
2023/11/09 03:25:33;;;;;;;4.17;3.80;;;9.90;99.90;;;;;;5056198;28;20671;-73
2023/11/09 03:27:59;;;;;;;5.60;3.50;;;9.90;99.90;;;;;;5055638;28;20210;-75
2023/11/09 03:30:26;;;;;;;4.00;3.80;;;9.90;99.90;;;;;;5055970;28;20196;-74
2023/11/09 03:32:52;;;;;;;4.13;3.93;;;9.90;99.90;;;;;;5055761;28;20635;-74
2023/11/09 03:35:18;;;;;;;3.80;3.60;;;9.90;99.90;;;;;;5055438;28;20268;-74
2023/11/09 03:37:43;;;;;;;4.10;3.90;;;9.90;99.90;;;;;;5055229;28;20251;-73
2023/11/09 03:40:10;;;;;;;3.77;3.57;;;10.00;99.90;;;;;;5055757;28;20182;-74
2023/11/09 03:42:36;;;;;;;3.90;3.53;;;9.90;99.90;;;;;;5055039;28;20206;-74
2023/11/09 03:45:02;;;;;;;3.20;3.10;;;10.00;99.90;;;;;;5054997;28;20623;-74
2023/11/09 03:47:28;;;;;;;3.63;3.43;;;10.00;99.90;;;;;;5055388;28;20592;-74
2023/11/09 03:49:54;;;;;;;3.53;3.43;;;10.00;99.90;;;;;;5055040;28;20191;-73
2023/11/09 03:52:19;;;;;;;3.40;3.20;;;10.00;99.90;;;;;;5055295;28;20242;-74
2023/11/09 03:54:45;;;;;;;3.20;3.10;;;10.10;99.90;;;;;;5075212;28;20289;-74
2023/11/09 03:57:10;;;;;;;3.50;3.30;;;10.10;99.90;;;;;;5074847;28;20174;-74
2023/11/09 03:59:36;;;;;;;3.20;3.10;;;10.10;99.90;;;;;;5074903;28;20260;-74
2023/11/09 04:02:02;;;;;;;3.10;3.00;;;10.10;99.90;;;;;;5074952;28;20259;-74
2023/11/09 04:04:27;;;;;;;3.27;3.17;;;10.10;99.90;;;;;;5074785;28;20280;-74
2023/11/09 04:06:54;;;;;;;3.40;3.20;;;10.10;99.90;;;;;;5074775;28;20170;-74
2023/11/09 04:09:21;;;;;;;3.50;3.30;;;10.10;99.90;;;;;;5074640;28;20654;-73
2023/11/09 04:11:46;;;;;;;3.40;3.20;;;10.20;99.90;;;;;;5075025;28;20669;-73
2023/11/09 04:14:12;;;;;;;3.43;3.27;;;10.20;99.90;;;;;;5074389;28;20197;-74
2023/11/09 04:16:38;;;;;;;3.50;3.30;;;10.20;99.90;;;;;;5074476;28;20835;-74
2023/11/09 04:19:04;;;;;;;3.40;3.30;;;10.20;99.90;;;;;;5074769;28;20186;-75
2023/11/09 04:21:29;;;;;;;3.30;3.20;;;10.20;99.90;;;;;;5064492;28;20698;-74
2023/11/09 04:23:55;;;;;;;3.30;3.20;;;10.20;99.90;;;;;;5036727;28;20178;-75
2023/11/09 04:26:22;;;;;;;3.30;3.20;;;10.20;99.90;;;;;;5054853;28;20181;-74
2023/11/09 04:28:51;;;;;;;3.20;3.10;;;10.20;99.90;;;;;;5054720;28;20225;-74
2023/11/09 04:31:20;;;;;;;3.37;3.27;;;10.20;99.90;;;;;;5054905;28;20212;-74
2023/11/09 04:33:46;;;;;;;3.37;3.17;;;10.30;99.90;;;;;;5054296;28;20698;-75
2023/11/09 04:36:12;;;;;;;3.17;3.00;;;10.30;99.90;;;;;;5054268;28;20183;-74
2023/11/09 04:38:38;;;;;;;3.47;3.17;;;10.30;99.90;;;;;;5053780;28;20170;-74
2023/11/09 04:41:12;;;;;;;3.10;3.00;;;10.40;99.90;;;;;;5054062;28;20167;-74
2023/11/09 04:43:39;;;;;;;8.03;3.73;;;10.40;99.90;;;;;;5053700;28;20571;-74
2023/11/09 04:46:10;;;;;;;3.33;3.20;;;10.40;99.90;;;;;;5053923;28;20216;-73
2023/11/09 04:48:44;;;;;;;2.80;2.70;;;10.40;99.90;;;;;;5055594;28;20189;-73
2023/11/09 04:51:31;;;;;;;3.10;3.00;;;10.40;99.90;;;;;;5073782;28;20195;-72
2023/11/09 04:54:06;;;;;;;3.80;3.37;;;10.40;99.90;;;;;;5073602;28;20703;-72
2023/11/09 04:56:39;;;;;;;3.33;3.10;;;10.40;99.90;;;;;;5073354;28;20162;-72
2023/11/09 05:07:24;;;;;;;3.23;3.07;;;10.30;99.90;;;;;;5053623;28;20255;-72
2023/11/09 05:09:50;;;;;;;3.00;2.90;;;10.30;99.90;;;;;;5053306;28;20178;-72
2023/11/09 05:12:17;;;;;;;3.40;3.20;;;10.20;99.90;;;;;;5053646;28;20175;-72
2023/11/09 05:14:43;;;;;;;3.43;3.33;;;10.20;99.90;;;;;;5053076;28;20195;-73
2023/11/09 05:17:09;;;;;;;3.10;3.00;;;10.10;99.90;;;;;;5059523;28;20236;-74
2023/11/09 05:19:36;;;;;;;3.20;3.10;;;10.10;99.90;;;;;;5073274;28;20202;-73
2023/11/09 05:22:02;;;;;;;3.57;3.37;;;10.10;99.90;;;;;;5073124;28;20567;-75
2023/11/09 05:24:28;;;;;;;3.10;3.00;;;10.00;99.90;;;;;;5055128;28;20212;-74
2023/11/09 05:26:54;;;;;;;3.20;3.00;;;10.00;99.90;;;;;;5072692;28;20201;-74
2023/11/09 05:29:20;;;;;;;3.23;2.90;;;10.00;99.90;;;;;;5055151;28;20231;-74
2023/11/09 05:31:50;;;;;;;3.00;2.90;;;9.90;99.90;;;;;;5072650;28;20189;-74
2023/11/09 05:34:15;;;;;;;3.30;3.20;;;9.90;99.90;;;;;;5072748;28;20201;-74
2023/11/09 05:36:43;;;;;;;3.30;3.00;;;9.90;99.90;;;;;;5072505;28;20604;-75
2023/11/09 05:39:10;;;;;;;3.33;3.23;;;9.80;99.90;;;;;;5072894;28;20257;-75
2023/11/09 05:41:36;;;;;;;3.40;3.30;;;9.80;99.90;;;;;;5072675;28;20166;-75
2023/11/09 05:44:02;;;;;;;3.50;3.30;;;9.80;99.90;;;;;;5072779;28;20199;-74
2023/11/09 05:46:28;;;;;;;3.60;3.40;;;9.80;99.90;;;;;;5054267;28;20183;-74
2023/11/09 05:48:54;;;;;;;3.40;3.20;;;9.80;99.90;;;;;;5052697;28;20182;-74
2023/11/09 05:51:21;;;;;;;3.40;3.20;;;9.70;99.90;;;;;;5052734;28;20192;-74
2023/11/09 05:53:50;;;;;;;3.80;3.60;;;9.70;99.90;;;;;;5052501;28;20163;-74
2023/11/09 05:56:16;;;;;;;3.40;3.23;;;9.70;99.90;;;;;;5052433;28;20627;-74
2023/11/09 05:58:43;;;;;;;3.40;3.20;;;9.70;99.90;;;;;;5052252;28;20163;-74
2023/11/09 06:01:10;;;;;;;3.40;3.20;;;9.70;99.90;;;;;;5052443;28;20206;-73
2023/11/09 06:03:35;;;;;;;3.60;3.40;;;9.70;99.90;;;;;;5052460;28;20773;-75
2023/11/09 06:06:01;;;;;;;3.53;3.33;;;9.70;99.90;;;;;;5052282;28;20273;-74
2023/11/09 06:08:28;;;;;;;3.30;3.10;;;9.70;99.90;;;;;;5051953;28;20171;-74
2023/11/09 06:10:53;;;;;;;3.20;3.10;;;9.70;99.90;;;;;;5052146;28;20177;-75
2023/11/09 06:13:19;;;;;;;3.47;3.33;;;9.70;99.90;;;;;;5059569;28;20170;-75
2023/11/09 06:15:45;;;;;;;3.33;3.23;;;9.70;99.90;;;;;;5071961;28;20194;-74
2023/11/09 06:18:10;;;;;;;3.67;3.30;;;9.70;99.90;;;;;;5071820;28;20228;-74
2023/11/09 06:20:40;;;;;;;3.70;3.50;;;9.70;99.90;;;;;;5071824;28;20163;-74
2023/11/09 06:23:05;;;;;;;3.63;3.40;;;9.70;99.90;;;;;;5071940;28;20204;-75
2023/11/09 06:25:31;;;;;;;3.00;2.90;;;9.70;99.90;;;;;;5071829;28;20182;-74
2023/11/09 06:27:57;;;;;;;3.20;3.00;;;9.60;99.90;;;;;;5071266;28;20548;-75
2023/11/09 06:30:22;;;;;;;3.47;3.27;;;9.70;99.90;;;;;;5072082;28;20166;-75
2023/11/09 06:32:48;;;;;;;3.63;3.43;;;9.70;99.90;;;;;;5071595;28;20196;-75
2023/11/09 06:35:17;;;;;;;3.43;3.30;;;9.70;99.90;;;;;;5053479;28;20609;-75
2023/11/09 06:37:45;;;;;;;3.60;3.40;;;9.70;99.90;;;;;;5070539;28;20181;-74
2023/11/09 06:40:12;;;;;;;3.53;3.33;;;9.70;99.90;;;;;;5071181;28;20256;-74
2023/11/09 06:42:39;;;;;;;3.40;3.30;;;9.70;99.90;;;;;;5051841;28;20214;-74
2023/11/09 06:45:05;;;;;;;3.37;3.17;;;9.60;99.90;;;;;;5051194;28;20187;-74
2023/11/09 06:47:31;;;;;;;3.43;3.30;;;9.70;99.90;;;;;;5050978;28;20186;-75
2023/11/09 06:49:58;;;;;;;3.47;3.37;;;9.70;99.90;;;;;;5051075;28;20167;-74
2023/11/09 06:52:24;;;;;;;3.60;3.40;;;9.70;99.90;;;;;;5051098;28;20181;-74
2023/11/09 06:54:50;;;;;;;3.57;3.40;;;9.70;99.90;;;;;;5050706;28;20195;-74
2023/11/09 06:57:15;;;;;;;4.03;3.83;;;9.70;99.90;;;;;;5067575;28;20188;-73
2023/11/09 06:59:41;;;;;;;4.20;3.80;;;9.70;99.90;;;;;;5069817;28;20174;-74
2023/11/09 07:02:07;;;;;;;3.97;3.77;;;9.70;99.90;;;;;;5070955;28;20198;-73
2023/11/09 07:04:33;;;;;;;3.90;3.70;;;9.70;99.90;;;;;;5070757;28;20682;-74
2023/11/09 07:06:59;;;;;;;4.07;3.67;;;9.70;99.90;;;;;;5070743;28;20197;-75
2023/11/09 07:09:24;;;;;;;3.77;3.57;;;9.80;99.90;;;;;;5063140;28;20174;-74
2023/11/09 07:11:53;;;;;;;3.80;3.60;;;9.80;99.90;;;;;;5050736;28;20216;-74
2023/11/09 07:14:23;;;;;;;3.97;3.67;;;9.80;99.90;;;;;;5050902;28;20191;-74
2023/11/09 07:16:55;;;;;;;3.80;3.60;;;9.80;99.90;;;;;;5050433;28;20203;-74
2023/11/09 07:19:23;;;;;;;3.47;3.27;;;9.90;99.90;;;;;;5050945;28;20695;-76
2023/11/09 07:21:50;;;;;;;3.70;3.50;;;9.90;99.90;;;;;;5050615;28;20305;-74
2023/11/09 07:24:17;;;;;;;3.60;3.40;;;9.90;99.90;;;;;;5050690;28;20198;-75
2023/11/09 07:26:44;;;;;;;3.40;3.20;;;9.90;99.90;;;;;;5050506;28;20163;-75
2023/11/09 07:29:10;;;;;;;3.53;3.30;;;10.00;99.90;;;;;;5050838;28;20166;-75
2023/11/09 07:31:35;;;;;;;3.40;3.20;;;10.00;99.90;;;;;;5051540;28;20167;-75
2023/11/09 07:34:01;;;;;;;3.40;3.10;;;9.90;99.90;;;;;;5050143;28;20209;-74
2023/11/09 07:36:27;;;;;;;3.77;3.50;;;9.90;99.90;;;;;;5049408;28;20171;-74
2023/11/09 07:38:53;;;;;;;3.90;3.60;;;10.00;99.90;;;;;;5070178;28;20662;-73
2023/11/09 07:41:19;;;;;;;4.43;4.13;;;9.90;99.90;;;;;;5070544;28;20170;-73
2023/11/09 07:43:44;;;;;;;4.37;3.97;;;9.90;99.90;;;;;;5070218;28;20208;-74
2023/11/09 07:46:10;;;;;;;3.80;3.60;;;10.00;99.90;;;;;;5070131;28;20174;-75
2023/11/09 07:48:36;;;;;;;3.40;3.20;;;10.00;99.90;;;;;;5070291;28;20176;-73
2023/11/09 07:51:01;;;;;;;3.50;3.30;;;10.00;99.90;;;;;;5070484;28;20647;-73
2023/11/09 07:53:28;;;;;;;5.53;3.83;;;10.10;99.90;;;;;;5070617;28;20266;-74
2023/11/09 07:55:53;;;;;;;3.70;3.50;;;10.10;99.90;;;;;;5070143;28;20594;-73
2023/11/09 07:58:20;;;;;;;4.10;3.80;;;10.20;99.90;;;;;;5070431;28;20220;-74
2023/11/09 08:00:45;;;;;;;4.70;4.33;;;10.20;99.90;;;;;;5069784;28;20280;-74
2023/11/09 08:03:11;;;;;;;5.43;4.60;;;10.30;99.90;;;;;;5071070;28;20277;-74
2023/11/09 08:05:41;;;;;;;5.90;4.40;;;10.30;99.90;;;;;;5061906;28;20186;-73
2023/11/09 08:08:10;;;;;;;6.47;4.80;;;10.40;99.90;;;;;;5051302;28;20232;-74
2023/11/09 08:10:37;;;;;;;5.20;4.80;;;10.40;99.90;;;;;;5053933;28;20639;-73
2023/11/09 08:13:03;;;;;;;5.83;5.20;;;10.40;99.90;;;;;;5056260;28;20175;-73
2023/11/09 08:15:28;;;;;;;5.50;5.10;;;10.40;99.90;;;;;;5057342;28;20218;-73
2023/11/09 08:17:54;;;;;;;5.30;4.73;;;10.40;99.90;;;;;;5054927;28;20198;-73
2023/11/09 08:20:20;;;;;;;4.83;4.43;;;10.30;99.90;;;;;;5053886;28;20171;-72
2023/11/09 08:22:46;;;;;;;5.80;4.30;;;10.30;99.90;;;;;;5035707;28;20784;-74
2023/11/09 08:25:18;;;;;;;3.93;3.63;;;10.10;99.90;;;;;;5054216;28;20222;-74
2023/11/09 08:27:44;;;;;;;7.70;4.43;;;10.00;99.90;;;;;;5053448;28;20174;-71
2023/11/09 08:30:11;;;;;;;5.00;4.00;;;9.90;99.90;;;;;;5053737;28;20166;-72
2023/11/09 08:32:37;;;;;;;7.10;4.50;;;9.90;99.90;;;;;;5053421;28;20174;-72
2023/11/09 08:35:10;;;;;;;7.57;4.73;;;9.80;99.90;;;;;;5073284;28;20206;-73
2023/11/09 08:37:38;;;;;;;6.93;4.93;;;9.80;99.90;;;;;;5075809;28;20202;-73
2023/11/09 08:40:09;;;;;;;8.93;5.13;;;9.80;99.90;;;;;;5073786;28;20193;-73
2023/11/09 08:42:36;;;;;;;6.93;4.60;;;9.80;99.90;;;;;;5072997;28;20563;-74
2023/11/09 08:45:03;;;;;;;5.93;4.90;;;9.80;99.90;;;;;;5073304;28;20194;-74
2023/11/09 08:47:29;;;;;;;8.33;5.57;;;9.80;99.90;;;;;;5072949;28;20634;-74
2023/11/09 08:49:55;;;;;;;9.63;4.77;;;9.80;99.90;;;;;;5073586;28;20249;-74
2023/11/09 08:52:23;;;;;;;8.87;5.13;;;9.90;99.90;;;;;;5073719;28;20196;-74
2023/11/09 08:54:52;;;;;;;10.47;4.90;;;9.90;99.90;;;;;;5073379;28;20192;-73
2023/11/09 08:57:18;;;;;;;10.07;5.17;;;10.00;99.90;;;;;;5073173;28;20328;-73
2023/11/09 08:59:44;;;;;;;11.20;5.27;;;10.00;99.90;;;;;;5070284;28;20244;-73
2023/11/09 09:02:10;;;;;;;7.83;4.97;;;10.00;99.90;;;;;;5053460;28;20366;-73
2023/11/09 09:04:35;;;;;;;11.43;5.33;;;10.10;99.90;;;;;;5053113;28;20210;-73
2023/11/09 09:07:01;;;;;;;13.87;5.50;;;10.10;99.90;;;;;;5052798;28;20617;-73
2023/11/09 09:09:26;;;;;;;6.80;5.17;;;10.20;99.90;;;;;;5052810;28;20166;-73
2023/11/09 09:11:52;;;;;;;11.00;5.63;;;10.20;99.90;;;;;;5054512;28;20552;-74
2023/11/09 09:14:18;;;;;;;8.77;4.53;;;10.30;99.90;;;;;;5054709;28;20194;-74
2023/11/09 09:16:44;;;;;;;11.47;5.37;;;10.30;99.90;;;;;;5074153;28;20247;-74
2023/11/09 09:19:10;;;;;;;9.93;5.33;;;10.20;99.90;;;;;;5073732;28;20634;-75
2023/11/09 09:21:36;;;;;;;11.10;5.13;;;10.20;99.90;;;;;;5073871;28;20174;-74
2023/11/09 09:24:03;;;;;;;5.90;4.50;;;10.30;99.90;;;;;;5074458;28;20186;-75
2023/11/09 09:26:31;;;;;;;13.27;4.70;;;10.30;99.90;;;;;;5057333;28;20182;-73
2023/11/09 09:28:57;;;;;;;6.90;4.73;;;10.20;99.90;;;;;;5064324;28;20166;-74
2023/11/09 09:31:23;;;;;;;6.10;5.10;;;10.30;99.90;;;;;;5072400;28;20192;-74
2023/11/09 09:34:10;;;;;;;8.60;4.80;;;10.50;99.90;;;;;;5071993;28;20189;-74
2023/11/09 09:36:37;;;;;;;10.53;5.17;;;10.80;99.90;;;;;;5071919;28;20174;-75
2023/11/09 09:39:03;;;;;;;7.27;4.53;;;10.90;99.90;;;;;;5072167;28;20166;-73
2023/11/09 09:41:50;;;;;;;9.90;4.60;;;11.10;99.90;;;;;;5072157;28;20194;-74
2023/11/09 09:44:17;;;;;;;5.67;4.50;;;11.20;99.90;;;;;;5065696;28;20677;-76
2023/11/09 09:46:45;;;;;;;5.60;4.23;;;11.30;99.90;;;;;;5068125;28;20890;-75
2023/11/09 09:49:17;;;;;;;6.37;4.07;;;11.40;99.90;;;;;;5070494;28;20201;-74
2023/11/09 09:51:43;;;;;;;8.07;4.30;;;11.50;99.90;;;;;;5066132;28;20181;-74
2023/11/09 09:54:10;;;;;;;9.60;4.53;;;11.50;99.90;;;;;;5071939;28;20217;-73
2023/11/09 09:56:40;;;;;;;7.37;4.13;;;11.50;99.90;;;;;;5071583;28;20715;-74
2023/11/09 09:59:10;;;;;;;5.70;4.20;;;11.50;99.90;;;;;;5072129;28;20177;-74
2023/11/09 10:01:48;;;;;;;6.40;4.23;;;11.40;99.90;;;;;;5072109;28;20643;-74
2023/11/09 10:04:15;;;;;;;7.83;4.40;;;11.30;99.90;;;;;;5071900;28;20186;-74
2023/11/09 10:06:41;;;;;;;9.43;4.50;;;11.30;99.90;;;;;;5071334;28;20174;-74
2023/11/09 10:09:07;;;;;;;7.97;4.37;;;11.30;99.90;;;;;;5071751;28;20166;-74
2023/11/09 10:11:37;;;;;;;7.57;4.30;;;11.30;99.90;;;;;;5071684;28;20162;-73
2023/11/09 10:14:03;;;;;;;13.03;4.47;;;11.30;99.90;;;;;;5071579;28;20179;-73
2023/11/09 10:16:32;;;;;;;9.03;4.10;;;11.40;99.90;;;;;;5071350;28;20515;-73
2023/11/09 10:19:05;;;;;;;7.00;3.73;;;11.30;99.90;;;;;;5071365;28;20180;-73
2023/11/09 10:21:30;;;;;;;9.47;4.50;;;11.40;99.90;;;;;;5071379;28;20249;-73
2023/11/09 10:24:01;;;;;;;8.03;4.20;;;11.40;99.90;;;;;;5071294;28;20249;-73
2023/11/09 10:26:44;;;;;;;8.33;4.17;;;11.50;99.90;;;;;;5071498;28;20170;-73
2023/11/09 10:29:14;;;;;;;10.73;4.20;;;11.60;99.90;;;;;;5071479;28;20162;-73
2023/11/09 10:31:44;;;;;;;9.57;4.43;;;11.60;99.90;;;;;;5059186;28;20548;-74
2023/11/09 10:34:15;;;;;;;7.53;4.13;;;11.70;99.90;;;;;;5051597;28;20213;-74
2023/11/09 10:36:41;;;;;;;8.70;4.20;;;11.80;99.90;;;;;;5055711;28;20179;-74
2023/11/09 10:39:18;;;;;;;5.77;4.00;;;11.80;99.90;;;;;;5055336;28;20182;-75
2023/11/09 10:41:48;;;;;;;6.00;3.90;;;11.80;99.90;;;;;;5055342;28;20174;-74
2023/11/09 10:44:22;;;;;;;4.03;3.50;;;11.90;99.90;;;;;;5056874;28;20679;-74
2023/11/09 10:46:53;;;;;;;8.37;3.87;;;11.90;99.90;;;;;;5056447;28;20182;-75
2023/11/09 10:49:23;;;;;;;9.87;4.10;;;12.10;99.90;;;;;;5055706;28;20182;-73
2023/11/09 10:51:54;;;;;;;4.70;3.60;;;12.10;99.90;;;;;;5056574;28;20190;-73
2023/11/09 10:54:24;;;;;;;8.33;4.70;;;12.10;99.90;;;;;;5056748;28;20198;-72
2023/11/09 10:57:00;;;;;;;8.80;4.20;;;12.10;99.90;;;;;;5055917;28;20526;-73
2023/11/09 10:59:26;;;;;;;11.47;4.10;;;12.00;99.90;;;;;;5056670;28;20178;-73
2023/11/09 11:01:59;;;;;;;9.60;4.43;;;11.90;99.90;;;;;;5076912;28;20696;-73
2023/11/09 11:04:28;;;;;;;4.40;3.87;;;11.80;99.90;;;;;;5077236;28;20221;-73
2023/11/09 11:06:59;;;;;;;10.63;4.07;;;11.70;99.90;;;;;;5077125;28;20189;-72
2023/11/09 11:09:28;;;;;;;6.93;3.67;;;11.70;99.90;;;;;;5076982;28;20261;-74
2023/11/09 11:11:58;;;;;;;7.93;3.80;;;11.80;99.90;;;;;;5075398;28;20220;-74
2023/11/09 11:14:27;;;;;;;12.37;4.40;;;11.80;99.90;;;;;;5063089;28;20194;-74
2023/11/09 11:17:03;;;;;;;9.87;5.10;;;11.80;99.90;;;;;;5056337;28;20549;-74
2023/11/09 11:19:55;;;;;;;9.37;5.40;;;12.00;99.90;;;;;;5056795;28;20344;-73
2023/11/09 11:22:30;;;;;;;13.07;5.10;;;12.20;99.90;;;;;;5010689;28;20214;-73
2023/11/09 11:25:19;;;;;;;5.63;4.30;;;12.30;99.90;;;;;;5055430;28;20198;-73
2023/11/09 11:27:58;;;;;;;9.63;4.40;;;12.30;99.90;;;;;;5044701;28;20186;-74
2023/11/09 11:30:27;;;;;;;7.83;4.13;;;12.20;99.90;;;;;;5058614;28;20186;-73
2023/11/09 11:32:56;;;;;;;8.47;3.67;;;12.20;99.90;;;;;;5056280;28;20190;-72
2023/11/09 11:35:46;;;;;;;10.07;4.43;;;12.10;99.90;;;;;;5058472;28;20214;-73
2023/11/09 11:38:26;;;;;;;7.47;4.20;;;12.00;99.90;;;;;;5071997;28;20174;-73
2023/11/09 11:41:16;;;;;;;6.87;4.07;;;12.00;99.90;;;;;;5069613;28;20182;-73
2023/11/09 11:43:50;;;;;;;13.20;4.00;;;11.90;99.90;;;;;;5065950;28;20214;-73
2023/11/09 11:46:17;;;;;;;8.40;4.73;;;11.80;99.90;;;;;;5070960;28;20179;-72
2023/11/09 11:48:51;;;;;;;9.33;4.17;;;11.80;99.90;;;;;;5058782;28;20175;-72
2023/11/09 11:51:18;;;;;;;6.60;3.97;;;11.80;99.90;;;;;;5061692;28;20171;-73
2023/11/09 11:53:52;;;;;;;8.73;4.60;;;11.90;99.90;;;;;;5060118;28;20585;-72
2023/11/09 11:56:24;;;;;;;9.47;4.13;;;12.10;99.90;;;;;;5058464;28;20183;-73
2023/11/09 11:58:55;;;;;;;8.30;4.03;;;12.10;99.90;;;;;;5056723;28;20250;-72
2023/11/09 12:01:28;;;;;;;5.80;3.90;;;12.20;99.90;;;;;;5055557;28;20171;-73
2023/11/09 12:03:58;;;;;;;7.37;3.83;;;12.40;99.90;;;;;;5056813;28;20210;-72
2023/11/09 12:06:25;;;;;;;8.33;4.60;;;12.50;99.90;;;;;;5057437;28;20178;-73
2023/11/09 12:09:10;;;;;;;7.70;4.07;;;12.70;99.90;;;;;;5056369;28;20213;-73
2023/11/09 12:11:47;;;;;;;8.73;4.50;;;12.90;99.90;;;;;;5058225;28;20167;-72
2023/11/09 12:14:15;;;;;;;11.87;6.03;;;12.90;99.90;;;;;;5040903;28;20262;-73
2023/11/09 12:16:40;;;;;;;7.00;4.17;;;12.90;99.90;;;;;;5057472;28;20194;-73
2023/11/09 12:19:06;;;;;;;10.37;4.60;;;12.90;99.90;;;;;;5058462;28;20174;-72
2023/11/09 12:21:34;;;;;;;12.37;5.20;;;13.00;99.90;;;;;;5065489;28;20569;-71
2023/11/09 12:24:00;;;;;;;8.57;3.90;;;13.00;99.90;;;;;;5073668;28;20198;-72
2023/11/09 12:26:32;;;;;;;8.63;4.80;;;12.90;99.90;;;;;;5073590;28;20185;-72
2023/11/09 12:29:00;;;;;;;5.47;4.20;;;12.90;99.90;;;;;;5055790;28;20219;-72
2023/11/09 12:31:30;;;;;;;12.17;4.97;;;12.90;99.90;;;;;;5074200;28;20193;-71
2023/11/09 12:34:07;;;;;;;8.50;4.30;;;12.90;99.90;;;;;;5073278;28;20635;-71
2023/11/09 12:36:41;;;;;;;8.97;4.23;;;12.90;99.90;;;;;;5073824;28;20170;-72
2023/11/09 12:41:50;;;;;;;17.63;5.63;;;13.00;99.90;;;;;;5060343;28;20522;-72
2023/11/09 12:44:24;;;;;;;7.53;4.43;;;13.10;99.90;;;;;;5053528;28;20198;-71
2023/11/09 12:46:53;;;;;;;8.37;3.53;;;13.20;99.90;;;;;;5053035;28;20175;-71
2023/11/09 12:49:21;;;;;;;7.70;4.13;;;13.30;99.90;;;;;;5043036;28;20265;-72
2023/11/09 12:51:47;;;;;;;7.43;4.10;;;13.40;99.90;;;;;;5073531;28;20170;-72
2023/11/09 12:54:13;;;;;;;8.13;4.40;;;13.50;48.80;;;;;;5073298;28;20189;-72
2023/11/09 12:56:39;;;;;;;7.77;4.50;;;13.60;1.00;;;;;;5071748;28;20571;-73
2023/11/09 12:59:11;;;;;;;9.07;3.43;;;13.60;1.00;;;;;;5073176;28;20269;-73
2023/11/09 13:01:38;;;;;;;7.93;3.67;;;13.60;99.90;;;;;;5073252;28;20220;-72
2023/11/09 13:04:05;;;;;;;7.80;3.90;;;13.50;99.40;;;;;;5072975;28;20197;-72